Time;durP1;ratioP1;P1;durP2;ratioP2;P2;SDS_P1;SDS_P2;PMS_P1;PMS_P2;Temp;Humidity;BMP_temperature;BMP_pressure;BME280_temperature;BME280_humidity;BME280_pressure;Samples;Min_cycle;Max_cycle;Signal;HPM_P1;HPM_P2
2021/12/24 00:01:12;;;;;;;44.63;17.88;;;;;;;9.53;100.00;100414.34;5046463;28;20033;-78
2021/12/24 00:03:39;;;;;;;44.92;18.35;;;;;;;9.48;100.00;100422.59;5050738;28;20036;-81
2021/12/24 00:06:06;;;;;;;46.50;19.17;;;;;;;9.62;100.00;100421.94;5060212;28;20028;-77
2021/12/24 00:08:32;;;;;;;51.10;18.45;;;;;;;9.70;100.00;100424.88;5036567;28;20036;-78
2021/12/24 00:11:00;;;;;;;50.60;18.67;;;;;;;9.63;100.00;100416.19;5043454;28;20193;-79
2021/12/24 00:13:28;;;;;;;46.25;18.33;;;;;;;9.47;100.00;100437.38;5042892;28;20020;-77
2021/12/24 00:16:19;;;;;;;45.45;18.95;;;;;;;9.53;100.00;100441.72;5055987;28;20518;-75
2021/12/24 00:18:52;;;;;;;48.20;18.60;;;;;;;9.59;100.00;100441.66;5055227;28;20085;-77
2021/12/24 00:37:24;;;;;;;50.15;15.32;;;;;;;9.61;100.00;100423.03;5052745;28;20466;-76
2021/12/24 00:42:35;;;;;;;51.92;15.30;;;;;;;9.61;100.00;100423.88;5058273;28;20040;-77
2021/12/24 00:45:02;;;;;;;42.45;15.40;;;;;;;9.70;100.00;100427.59;5036147;28;20038;-76
2021/12/24 00:47:28;;;;;;;51.65;14.43;;;;;;;9.82;100.00;100419.03;5050460;28;20229;-76
2021/12/24 00:49:54;;;;;;;48.25;13.93;;;;;;;9.74;100.00;100417.72;5048403;28;20037;-76
2021/12/24 00:55:05;;;;;;;45.63;14.50;;;;;;;9.78;100.00;100415.22;5067282;28;20068;-77
2021/12/24 00:57:35;;;;;;;39.63;14.40;;;;;;;9.82;100.00;100427.25;5066120;28;20169;-75
2021/12/24 01:00:01;;;;;;;33.80;13.52;;;;;;;9.82;100.00;100420.94;5044685;28;20393;-77
2021/12/24 01:02:26;;;;;;;56.10;14.90;;;;;;;9.74;100.00;100412.25;5051229;28;20479;-74
2021/12/24 01:04:52;;;;;;;41.60;15.07;;;;;;;9.80;100.00;100413.03;5044746;28;20394;-75
2021/12/24 01:07:17;;;;;;;38.38;13.60;;;;;;;9.69;100.00;100409.56;5048995;28;20111;-75
2021/12/24 01:09:44;;;;;;;37.55;14.13;;;;;;;9.86;100.00;100430.22;5048202;28;20032;-75
2021/12/24 01:12:10;;;;;;;37.47;13.25;;;;;;;9.73;100.00;100426.22;5056979;28;20115;-75
2021/12/24 01:14:36;;;;;;;41.42;14.32;;;;;;;9.83;100.00;100423.41;5045409;28;20459;-76
2021/12/24 01:17:22;;;;;;;36.38;14.60;;;;;;;9.76;100.00;100417.44;5052001;28;20471;-76
2021/12/24 01:19:51;;;;;;;44.38;14.50;;;;;;;9.78;100.00;100430.84;5045471;28;20393;-77
2021/12/24 01:25:42;;;;;;;43.65;15.60;;;;;;;9.84;100.00;100421.47;5059676;28;20035;-75
2021/12/24 01:28:33;;;;;;;39.45;14.05;;;;;;;9.79;100.00;100425.09;5054529;28;20053;-75
2021/12/24 01:38:31;;;;;;;35.33;13.32;;;;;;;9.71;100.00;100418.31;5064859;28;20101;-75
2021/12/24 01:43:24;;;;;;;37.45;11.00;;;;;;;9.55;100.00;100412.13;5049585;28;20174;-75
2021/12/24 01:45:53;;;;;;;26.70;10.18;;;;;;;9.71;100.00;100429.25;5051330;28;20043;-74
2021/12/24 01:48:19;;;;;;;33.00;11.30;;;;;;;9.84;100.00;100418.72;5056033;28;20529;-74
2021/12/24 01:50:46;;;;;;;33.22;11.57;;;;;;;9.79;100.00;100418.78;5051771;28;20044;-78
2021/12/24 01:53:17;;;;;;;33.22;12.20;;;;;;;9.90;100.00;100410.22;5062623;28;20154;-77
2021/12/24 01:55:45;;;;;;;32.92;11.07;;;;;;;9.64;100.00;100409.63;5059292;28;20479;-78
2021/12/24 01:58:11;;;;;;;38.28;11.18;;;;;;;9.57;100.00;100412.69;5058134;28;20542;-78
2021/12/24 02:00:42;;;;;;;34.70;11.00;;;;;;;9.62;100.00;100400.03;5064959;28;20078;-75
2021/12/24 02:03:09;;;;;;;32.47;10.20;;;;;;;9.48;100.00;100408.91;5061521;28;20044;-76
2021/12/24 02:05:35;;;;;;;31.70;10.57;;;;;;;9.59;100.00;100406.09;5061893;28;20043;-78
2021/12/24 02:08:02;;;;;;;28.20;9.93;;;;;;;9.62;100.00;100422.75;5049546;28;20024;-76
2021/12/24 02:10:28;;;;;;;34.85;10.50;;;;;;;9.70;100.00;100415.84;5051014;28;20020;-75
2021/12/24 02:12:57;;;;;;;28.83;10.00;;;;;;;9.83;100.00;100422.59;5062124;28;20043;-74
2021/12/24 02:15:35;;;;;;;29.52;9.80;;;;;;;9.82;100.00;100426.41;5052156;28;20098;-75
2021/12/24 02:18:37;;;;;;;31.27;10.40;;;;;;;9.79;100.00;100421.53;5053532;28;20090;-75
2021/12/24 02:28:18;;;;;;;35.75;12.02;;;;;;;9.83;100.00;100428.88;5053828;28;20090;-75
2021/12/24 02:29:14;;;;;;;38.25;10.73;;;;;;;9.74;100.00;100416.94;5046107;28;20067;-73
2021/12/24 02:31:40;;;;;;;36.67;11.00;;;;;;;9.71;100.00;100414.75;5054647;28;20020;-77
2021/12/24 02:34:05;;;;;;;34.83;10.82;;;;;;;9.64;100.00;100411.50;5059586;28;20025;-75
2021/12/24 02:36:31;;;;;;;35.17;10.45;;;;;;;9.70;100.00;100416.66;5066017;28;20657;-75
2021/12/24 02:38:57;;;;;;;39.33;11.18;;;;;;;9.75;100.00;100419.34;5034430;28;20040;-75
2021/12/24 02:41:22;;;;;;;26.27;10.15;;;;;;;9.57;100.00;100418.16;5030420;28;20036;-77
2021/12/24 02:43:50;;;;;;;33.63;10.45;;;;;;;9.65;100.00;100415.91;5027820;28;20464;-77
2021/12/24 02:54:07;;;;;;;25.15;9.60;;;;;;;9.65;100.00;100418.63;5043581;28;20024;-77
2021/12/24 02:56:38;;;;;;;25.92;8.77;;;;;;;9.54;100.00;100418.72;5038520;28;20028;-74
2021/12/24 02:59:07;;;;;;;31.65;9.35;;;;;;;9.59;100.00;100406.09;5063273;28;20024;-76
2021/12/24 03:01:36;;;;;;;28.33;10.02;;;;;;;9.57;100.00;100420.91;5056780;28;20120;-75
2021/12/24 03:04:04;;;;;;;26.73;8.82;;;;;;;9.59;100.00;100400.63;5061380;28;20052;-77
2021/12/24 03:06:33;;;;;;;23.70;8.65;;;;;;;9.44;100.00;100399.63;5045205;28;20040;-77
2021/12/24 03:08:58;;;;;;;37.75;9.45;;;;;;;9.64;100.00;100406.03;5062741;28;20038;-75
2021/12/24 03:11:24;;;;;;;34.45;9.95;;;;;;;9.65;100.00;100411.22;5052043;28;20028;-76
2021/12/24 03:13:55;;;;;;;31.90;9.57;;;;;;;9.65;100.00;100405.75;5042643;28;20046;-74
2021/12/24 03:16:22;;;;;;;23.23;9.65;;;;;;;9.37;100.00;100415.56;5026312;28;20029;-75
2021/12/24 03:18:48;;;;;;;28.83;9.18;;;;;;;9.56;100.00;100400.09;5020846;28;20441;-75
2021/12/24 03:21:19;;;;;;;23.40;8.80;;;;;;;9.64;100.00;100411.50;5032966;28;20123;-75
2021/12/24 03:26:35;;;;;;;39.40;9.73;;;;;;;9.51;100.00;100400.13;5045107;28;20044;-76
2021/12/24 03:29:05;;;;;;;25.73;10.07;;;;;;;9.54;100.00;100406.94;5046450;28;20067;-75
2021/12/24 03:31:31;;;;;;;32.80;9.38;;;;;;;9.62;100.00;100411.00;5026800;28;20059;-75
2021/12/24 03:33:59;;;;;;;27.13;8.77;;;;;;;9.40;100.00;100403.25;5053270;28;20043;-77
2021/12/24 03:36:26;;;;;;;29.67;9.38;;;;;;;9.42;100.00;100406.50;5023510;28;20040;-75
2021/12/24 03:38:53;;;;;;;26.70;9.63;;;;;;;9.48;100.00;100400.69;5042566;28;20025;-75
2021/12/24 03:41:18;;;;;;;26.75;9.80;;;;;;;9.55;100.00;100400.38;5043503;28;20277;-76
2021/12/24 03:43:50;;;;;;;30.08;8.80;;;;;;;9.60;100.00;100407.72;5057156;28;20230;-75
2021/12/24 03:46:19;;;;;;;33.30;9.88;;;;;;;9.50;100.00;100405.88;5061011;28;20344;-75
2021/12/24 03:48:51;;;;;;;28.50;9.15;;;;;;;9.57;100.00;100399.00;5061215;28;20063;-75
2021/12/24 03:51:28;;;;;;;31.75;9.82;;;;;;;9.59;100.00;100403.34;5050727;28;20386;-74
2021/12/24 03:56:39;;;;;;;31.40;8.93;;;;;;;9.17;100.00;100405.56;5045953;28;20543;-74
2021/12/24 03:59:06;;;;;;;28.77;8.60;;;;;;;9.26;100.00;100395.66;5038998;28;20529;-75
2021/12/24 04:01:31;;;;;;;25.30;8.00;;;;;;;9.26;100.00;100400.31;5058052;28;20123;-76
2021/12/24 04:03:57;;;;;;;28.83;9.35;;;;;;;9.30;100.00;100409.59;5050401;28;20446;-75
2021/12/24 04:06:23;;;;;;;31.63;9.63;;;;;;;9.40;100.00;100397.78;5051441;28;20040;-76
2021/12/24 04:08:48;;;;;;;33.88;9.05;;;;;;;9.33;100.00;100400.81;5067661;28;20107;-76
2021/12/24 04:11:14;;;;;;;26.80;8.48;;;;;;;9.37;100.00;100402.69;5053355;28;20116;-75
2021/12/24 04:13:39;;;;;;;31.55;8.35;;;;;;;9.35;100.00;100404.09;5047364;28;20044;-76
2021/12/24 04:16:05;;;;;;;26.52;7.68;;;;;;;9.18;100.00;100407.19;5052503;28;20043;-74
2021/12/24 04:26:25;;;;;;;23.63;7.85;;;;;;;9.33;100.00;100401.63;5052036;28;20051;-76
2021/12/24 04:28:53;;;;;;;32.03;7.85;;;;;;;9.44;100.00;100418.78;5054080;28;20041;-75
2021/12/24 04:31:25;;;;;;;26.20;7.88;;;;;;;9.40;100.00;100408.72;5046338;28;20478;-74
2021/12/24 04:33:51;;;;;;;28.67;7.72;;;;;;;9.44;100.00;100415.25;5065659;28;20086;-73
2021/12/24 05:03:29;;;;;;;32.28;7.65;;;;;;;8.96;100.00;100405.69;5049617;28;20031;-74
2021/12/24 05:06:29;;;;;;;26.55;6.93;;;;;;;8.94;100.00;100407.09;5065442;28;20054;-71
2021/12/24 05:11:11;;;;;;;22.02;6.13;;;;;;;8.85;100.00;100387.69;5065572;28;20081;-73
2021/12/24 05:13:38;;;;;;;26.40;6.97;;;;;;;8.98;100.00;100397.19;5050120;28;20029;-76
2021/12/24 05:16:17;;;;;;;29.27;6.43;;;;;;;8.86;100.00;100394.81;5060715;28;20406;-75
2021/12/24 05:21:33;;;;;;;29.88;7.60;;;;;;;9.07;100.00;100409.19;5050727;28;20530;-74
2021/12/24 05:24:12;;;;;;;33.28;7.32;;;;;;;8.80;100.00;100404.94;5065636;28;20025;-74
2021/12/24 05:26:39;;;;;;;31.75;7.18;;;;;;;8.86;100.00;100407.66;5067329;28;20073;-75
2021/12/24 05:29:05;;;;;;;36.03;7.50;;;;;;;8.83;100.00;100411.78;5051577;28;20580;-75
2021/12/24 05:31:31;;;;;;;26.40;6.70;;;;;;;8.87;100.00;100403.81;5063934;28;20036;-76
2021/12/24 05:33:57;;;;;;;24.45;6.60;;;;;;;8.91;100.00;100413.13;5046928;28;20020;-74
2021/12/24 05:36:23;;;;;;;29.77;6.97;;;;;;;8.94;100.00;100401.63;5057323;28;20039;-77
2021/12/24 05:38:49;;;;;;;28.02;6.70;;;;;;;8.70;100.00;100405.00;5051652;28;20062;-75
2021/12/24 05:41:18;;;;;;;27.98;6.00;;;;;;;8.75;100.00;100402.22;5063602;28;20044;-77
2021/12/24 05:43:45;;;;;;;26.55;7.15;;;;;;;8.70;100.00;100402.25;5051901;28;20083;-76
2021/12/24 05:46:12;;;;;;;27.77;6.55;;;;;;;8.69;100.00;100394.34;5009957;28;20359;-75
2021/12/24 05:48:37;;;;;;;28.50;7.40;;;;;;;8.85;100.00;100408.75;5039297;28;20471;-76
2021/12/24 05:51:04;;;;;;;33.92;7.07;;;;;;;8.78;100.00;100407.16;5049892;28;20335;-77
2021/12/24 05:53:29;;;;;;;33.15;6.65;;;;;;;8.78;100.00;100407.16;5041673;28;20813;-75
2021/12/24 05:55:55;;;;;;;34.63;7.07;;;;;;;8.78;100.00;100400.88;5051166;28;20036;-74
2021/12/24 05:58:22;;;;;;;25.85;6.20;;;;;;;8.67;100.00;100413.75;5049075;28;20510;-77
2021/12/24 06:00:48;;;;;;;26.92;7.32;;;;;;;8.67;100.00;100419.22;5044743;28;20024;-74
2021/12/24 06:03:15;;;;;;;40.60;7.60;;;;;;;8.72;100.00;100413.72;5044113;28;20024;-74
2021/12/24 06:05:41;;;;;;;32.33;6.13;;;;;;;8.72;100.00;100416.47;5043007;28;20060;-73
2021/12/24 06:08:07;;;;;;;31.02;6.95;;;;;;;8.58;100.00;100399.06;5062102;28;20064;-77
2021/12/24 06:10:34;;;;;;;23.58;6.30;;;;;;;8.60;100.00;100396.84;5044082;28;20520;-75
2021/12/24 06:13:00;;;;;;;30.30;6.72;;;;;;;8.62;100.00;100400.94;5067275;28;20027;-74
2021/12/24 06:15:26;;;;;;;27.83;6.80;;;;;;;8.58;100.00;100401.78;5062688;28;20028;-73
2021/12/24 06:17:55;;;;;;;24.55;6.90;;;;;;;8.58;100.00;100409.97;5063578;28;20032;-75
2021/12/24 06:20:23;;;;;;;29.08;6.47;;;;;;;8.58;100.00;100410.78;5061402;28;20048;-74
2021/12/24 06:22:49;;;;;;;29.23;6.68;;;;;;;8.60;100.00;100424.19;5058825;28;20433;-78
2021/12/24 06:25:17;;;;;;;30.83;6.90;;;;;;;8.66;100.00;100417.59;5059655;28;20073;-75
2021/12/24 06:27:44;;;;;;;30.92;6.75;;;;;;;8.51;100.00;100414.91;5047483;28;20079;-76
2021/12/24 06:30:10;;;;;;;24.17;5.57;;;;;;;8.38;100.00;100416.28;5053645;28;20497;-75
2021/12/24 06:32:36;;;;;;;26.90;6.55;;;;;;;8.50;100.00;100419.56;5054724;28;20581;-76
2021/12/24 06:35:03;;;;;;;25.75;6.18;;;;;;;8.47;100.00;100414.66;5044645;28;20132;-74
2021/12/24 06:37:28;;;;;;;24.65;6.03;;;;;;;8.46;100.00;100427.50;5039951;28;20043;-75
2021/12/24 06:39:55;;;;;;;35.05;7.03;;;;;;;8.45;100.00;100417.66;5063615;28;20449;-76
2021/12/24 06:42:21;;;;;;;26.05;5.32;;;;;;;8.45;100.00;100422.31;5034909;28;20415;-73
2021/12/24 06:44:46;;;;;;;26.75;6.07;;;;;;;8.51;100.00;100428.56;5051890;28;20155;-75
2021/12/24 06:47:13;;;;;;;30.27;6.28;;;;;;;8.59;100.00;100428.84;5054143;28;20115;-76
2021/12/24 06:49:39;;;;;;;37.50;6.47;;;;;;;8.58;100.00;100423.66;5030790;28;20382;-78
2021/12/24 06:52:05;;;;;;;24.88;5.47;;;;;;;8.69;100.00;100413.47;5046383;28;20047;-77
2021/12/24 06:54:33;;;;;;;24.48;6.47;;;;;;;8.70;100.00;100421.41;5035369;28;20075;-77
2021/12/24 06:56:59;;;;;;;37.53;6.18;;;;;;;8.62;100.00;100416.50;5049363;28;20488;-77
2021/12/24 06:59:24;;;;;;;35.15;7.20;;;;;;;8.68;100.00;100415.41;5043978;28;20163;-75
2021/12/24 07:01:49;;;;;;;35.58;6.82;;;;;;;8.57;100.00;100419.25;5046846;28;20124;-75
2021/12/24 07:04:15;;;;;;;28.83;6.57;;;;;;;8.69;100.00;100422.50;5046034;28;20512;-75
2021/12/24 07:06:45;;;;;;;23.92;6.60;;;;;;;8.64;100.00;100419.78;5055219;28;21375;-76
2021/12/24 07:09:14;;;;;;;36.17;6.25;;;;;;;8.71;100.00;100420.31;5040974;28;20227;-74
2021/12/24 07:11:40;;;;;;;31.80;6.65;;;;;;;8.77;100.00;100419.19;5050591;28;20040;-74
2021/12/24 07:14:06;;;;;;;38.40;6.88;;;;;;;8.79;100.00;100421.66;5050116;28;20432;-76
2021/12/24 07:16:31;;;;;;;34.63;6.43;;;;;;;8.57;100.00;100422.00;5031423;28;20480;-76
2021/12/24 07:18:57;;;;;;;36.72;6.18;;;;;;;8.69;100.00;100419.78;5038919;28;20031;-75
2021/12/24 07:21:25;;;;;;;28.95;6.40;;;;;;;8.62;100.00;100416.50;5046188;28;20028;-77
2021/12/24 07:23:51;;;;;;;36.20;6.70;;;;;;;8.69;100.00;100419.78;5043068;28;20672;-75
2021/12/24 07:26:16;;;;;;;43.92;6.45;;;;;;;8.63;100.00;100412.69;5039255;28;20123;-77
2021/12/24 07:28:41;;;;;;;33.83;6.13;;;;;;;8.53;100.00;100419.00;5029106;28;20052;-77
2021/12/24 07:31:07;;;;;;;36.55;6.03;;;;;;;8.59;100.00;100412.44;5054654;28;20035;-76
2021/12/24 07:33:32;;;;;;;33.47;5.45;;;;;;;8.59;100.00;100414.31;5046528;28;20040;-76
2021/12/24 07:35:58;;;;;;;26.02;5.95;;;;;;;8.52;100.00;100405.63;5035138;28;20036;-81
2021/12/24 07:38:25;;;;;;;27.65;5.95;;;;;;;8.71;100.00;100414.03;5031694;28;20043;-76
2021/12/24 07:40:51;;;;;;;25.05;4.85;;;;;;;8.73;100.00;100409.91;5061081;28;20460;-75
2021/12/24 07:43:16;;;;;;;27.88;5.30;;;;;;;8.60;100.00;100415.97;5041095;28;20020;-75
2021/12/24 07:45:44;;;;;;;36.00;5.53;;;;;;;8.52;100.00;100405.63;5046546;28;20137;-76
2021/12/24 07:48:12;;;;;;;27.52;5.20;;;;;;;8.58;100.00;100410.78;5034740;28;20068;-75
2021/12/24 07:53:11;;;;;;;36.50;5.68;;;;;;;8.71;100.00;100412.09;5047956;28;20060;-75
2021/12/24 07:55:37;;;;;;;27.50;5.07;;;;;;;8.76;100.00;100403.06;5050508;28;20029;-75
2021/12/24 07:58:04;;;;;;;32.28;5.57;;;;;;;8.75;100.00;100409.63;5052097;28;20107;-76
2021/12/24 08:00:30;;;;;;;25.40;5.38;;;;;;;8.73;100.00;100411.81;5031482;28;20400;-77
2021/12/24 08:02:57;;;;;;;26.00;4.97;;;;;;;8.79;100.00;100407.97;5046599;28;20475;-75
2021/12/24 08:05:25;;;;;;;27.80;4.32;;;;;;;8.73;100.00;100415.38;5049965;28;20025;-75
2021/12/24 08:07:52;;;;;;;22.30;5.20;;;;;;;8.86;100.00;100411.22;5051454;28;20052;-73
2021/12/24 08:10:20;;;;;;;30.90;5.35;;;;;;;8.95;100.00;100419.63;5038521;28;20081;-75
2021/12/24 08:12:46;;;;;;;33.17;5.28;;;;;;;8.78;100.00;100420.81;5035632;28;20044;-78
2021/12/24 08:15:11;;;;;;;35.55;4.80;;;;;;;8.93;100.00;100416.38;5024157;28;20029;-75
2021/12/24 08:17:37;;;;;;;36.00;5.50;;;;;;;8.87;100.00;100418.31;5053280;28;20045;-79
2021/12/24 08:20:07;;;;;;;22.50;5.30;;;;;;;8.86;100.00;100416.69;5054502;28;20028;-77
2021/12/24 08:22:34;;;;;;;30.42;4.72;;;;;;;8.87;100.00;100412.88;5033004;28;20467;-78
2021/12/24 08:25:00;;;;;;;35.13;6.03;;;;;;;8.81;100.00;100422.97;5028165;28;20235;-75
2021/12/24 08:27:35;;;;;;;29.67;5.70;;;;;;;8.91;100.00;100421.31;5043595;28;20141;-77
2021/12/24 08:30:04;;;;;;;34.38;5.35;;;;;;;8.97;100.00;100415.53;5042203;28;20616;-75
2021/12/24 08:32:31;;;;;;;36.67;5.05;;;;;;;8.97;100.00;100421.00;5053894;28;20056;-75
2021/12/24 08:34:56;;;;;;;26.60;5.38;;;;;;;9.19;100.00;100420.59;5020440;28;20028;-79
2021/12/24 08:37:23;;;;;;;37.05;5.53;;;;;;;9.04;100.00;100428.09;5057944;28;20078;-77
2021/12/24 08:39:49;;;;;;;25.48;5.10;;;;;;;9.16;100.00;100417.59;5051194;28;20024;-79
2021/12/24 08:42:17;;;;;;;31.85;5.15;;;;;;;9.10;100.00;100418.72;5045607;28;20024;-80
2021/12/24 08:44:43;;;;;;;22.95;4.20;;;;;;;9.18;100.00;100423.59;5056947;28;20025;-79
2021/12/24 08:47:11;;;;;;;27.40;4.63;;;;;;;9.29;100.00;100419.72;5039714;28;20036;-77
2021/12/24 08:49:37;;;;;;;33.08;4.60;;;;;;;9.24;100.00;100410.72;5041631;28;20062;-79
2021/12/24 08:52:05;;;;;;;32.50;6.00;;;;;;;9.17;100.00;100419.25;5047570;28;20103;-78
2021/12/24 08:54:31;;;;;;;29.58;4.90;;;;;;;9.20;100.00;100416.75;5040007;28;20139;-76
2021/12/24 08:56:58;;;;;;;37.05;6.28;;;;;;;9.42;100.00;100407.31;5045234;28;20032;-78
2021/12/24 08:59:23;;;;;;;26.08;4.90;;;;;;;9.48;100.00;100408.91;5056796;28;20082;-77
2021/12/24 09:01:52;;;;;;;25.73;5.90;;;;;;;9.46;100.00;100416.59;5060706;28;20028;-78
2021/12/24 09:04:17;;;;;;;32.78;5.75;;;;;;;9.25;100.00;100429.59;5059694;28;20021;-78
2021/12/24 09:06:43;;;;;;;29.60;5.15;;;;;;;9.40;100.00;100425.13;5036714;28;20090;-79
2021/12/24 09:09:10;;;;;;;29.13;4.85;;;;;;;9.50;100.00;100411.38;5053667;28;20325;-80
2021/12/24 09:11:38;;;;;;;25.40;5.03;;;;;;;9.40;100.00;100423.19;5033486;28;20037;-76
2021/12/24 09:14:04;;;;;;;26.05;4.28;;;;;;;9.49;100.00;100407.78;5046298;28;20083;-78
2021/12/24 09:16:33;;;;;;;26.55;5.00;;;;;;;9.44;100.00;100413.31;5048200;28;20037;-78
2021/12/24 09:19:04;;;;;;;27.25;5.20;;;;;;;9.56;100.00;100407.50;5033549;28;20037;-79
2021/12/24 09:21:37;;;;;;;25.38;4.97;;;;;;;9.26;100.00;100405.78;5048459;28;20152;-78
2021/12/24 09:24:07;;;;;;;30.67;5.28;;;;;;;9.40;100.00;100409.53;5028193;28;20021;-77
2021/12/24 09:26:34;;;;;;;29.17;4.80;;;;;;;9.26;100.00;100420.28;5061167;28;20025;-76
2021/12/24 09:29:02;;;;;;;26.40;4.80;;;;;;;9.14;100.00;100417.88;5050773;28;20552;-76
2021/12/24 09:31:27;;;;;;;28.83;4.40;;;;;;;9.29;100.00;100413.44;5053557;28;20509;-77
2021/12/24 09:33:53;;;;;;;29.70;4.68;;;;;;;9.29;100.00;100411.50;5058555;28;20390;-76
2021/12/24 09:36:25;;;;;;;27.42;4.63;;;;;;;9.32;100.00;100418.34;5045873;28;20044;-77
2021/12/24 09:38:53;;;;;;;30.92;5.55;;;;;;;9.25;100.00;100409.59;5045134;28;20028;-76
2021/12/24 09:41:20;;;;;;;26.23;5.00;;;;;;;9.35;100.00;100412.28;5053217;28;20032;-78
2021/12/24 09:43:54;;;;;;;30.40;5.20;;;;;;;9.31;100.00;100413.94;5047168;28;20562;-76
2021/12/24 09:46:19;;;;;;;23.27;5.05;;;;;;;9.30;100.00;100407.66;5050561;28;20036;-76
2021/12/24 09:48:45;;;;;;;24.30;4.80;;;;;;;9.47;100.00;100398.25;5044167;28;20029;-78
2021/12/24 09:51:11;;;;;;;34.63;7.55;;;;;;;9.41;100.00;100415.81;5012933;28;20044;-77
2021/12/24 09:53:37;;;;;;;32.25;8.63;;;;;;;9.43;100.00;100410.84;5043753;28;20091;-83
2021/12/24 09:56:05;;;;;;;28.58;5.47;;;;;;;9.33;100.00;100414.47;5035581;28;20029;-77
2021/12/24 09:58:32;;;;;;;27.70;5.43;;;;;;;9.37;100.00;100404.63;5029072;28;20411;-78
2021/12/24 10:00:59;;;;;;;27.00;5.63;;;;;;;9.26;100.00;100408.53;5060733;28;20032;-78
2021/12/24 10:03:37;;;;;;;31.13;6.53;;;;;;;9.33;100.00;100409.00;5046334;28;20024;-78
2021/12/24 10:06:04;;;;;;;26.10;5.30;;;;;;;9.34;100.00;100405.19;5053384;28;20466;-78
2021/12/24 10:08:31;;;;;;;27.67;6.47;;;;;;;9.44;100.00;100407.03;5030416;28;20484;-77
2021/12/24 10:11:10;;;;;;;32.33;5.25;;;;;;;9.33;100.00;100409.00;5063705;28;20736;-76
2021/12/24 10:13:43;;;;;;;32.20;5.15;;;;;;;9.40;100.00;100404.06;5060311;28;20036;-76
2021/12/24 10:16:21;;;;;;;29.83;6.07;;;;;;;9.47;100.00;100414.66;5046922;28;20487;-76
2021/12/24 10:18:50;;;;;;;25.25;5.07;;;;;;;9.50;100.00;100408.63;5048280;28;20028;-76
2021/12/24 10:21:24;;;;;;;28.10;4.72;;;;;;;9.57;100.00;100398.16;5046862;28;20447;-76
2021/12/24 10:24:02;;;;;;;26.95;4.93;;;;;;;9.38;100.00;100400.78;5041088;28;20025;-77
2021/12/24 10:26:57;;;;;;;23.48;4.75;;;;;;;9.47;100.00;100398.25;5048559;28;20044;-76
2021/12/24 10:29:33;;;;;;;22.35;5.13;;;;;;;9.39;100.00;100402.41;5046480;28;20052;-76
2021/12/24 10:32:10;;;;;;;25.10;5.38;;;;;;;9.64;100.00;100404.13;5052587;28;20056;-76
2021/12/24 10:34:39;;;;;;;26.17;5.28;;;;;;;9.55;100.00;100403.91;5041711;28;20056;-75
2021/12/24 10:37:14;;;;;;;30.48;4.95;;;;;;;9.68;100.00;100407.13;5025614;28;20052;-75
2021/12/24 10:39:52;;;;;;;35.20;6.10;;;;;;;9.61;100.00;100406.59;5041497;28;20104;-77
2021/12/24 10:42:27;;;;;;;28.05;5.78;;;;;;;9.65;100.00;100408.50;5043152;28;20035;-77
2021/12/24 10:44:53;;;;;;;35.22;5.78;;;;;;;9.42;100.00;100410.03;5047939;28;20090;-75
2021/12/24 10:47:28;;;;;;;28.42;5.50;;;;;;;9.50;100.00;100409.44;5048328;28;20063;-76
2021/12/24 10:55:21;;;;;;;25.75;5.50;;;;;;;9.52;100.00;100403.69;5044087;28;20483;-77
2021/12/24 10:57:49;;;;;;;29.45;5.70;;;;;;;9.31;100.00;100416.69;5050709;28;20494;-76
2021/12/24 11:00:22;;;;;;;26.23;5.50;;;;;;;9.36;100.00;100408.44;5052646;28;20036;-76
2021/12/24 11:02:51;;;;;;;27.52;5.40;;;;;;;9.59;100.00;100400.63;5056325;28;20120;-76
2021/12/24 11:05:35;;;;;;;26.48;5.80;;;;;;;9.24;100.00;100402.53;5063101;28;20024;-76
2021/12/24 11:08:05;;;;;;;31.02;6.18;;;;;;;9.46;100.00;100402.06;5054785;28;20024;-76
2021/12/24 11:10:33;;;;;;;25.85;6.10;;;;;;;9.43;100.00;100406.22;5047016;28;20033;-76
2021/12/24 11:13:07;;;;;;;30.48;5.47;;;;;;;9.15;100.00;100405.84;5052354;28;20187;-75
2021/12/24 11:15:46;;;;;;;25.25;5.72;;;;;;;9.26;100.00;100414.78;5046939;28;20028;-76
2021/12/24 11:18:20;;;;;;;30.70;6.20;;;;;;;9.17;100.00;100403.66;5043670;28;20139;-75
2021/12/24 11:20:57;;;;;;;25.58;5.60;;;;;;;9.19;100.00;100406.09;5040985;28;20036;-73
2021/12/24 11:23:25;;;;;;;22.70;5.13;;;;;;;9.27;100.00;100407.44;5042530;28;20501;-76
2021/12/24 11:26:03;;;;;;;29.35;5.65;;;;;;;9.27;100.00;100408.25;5054261;28;20104;-75
2021/12/24 11:28:32;;;;;;;26.85;5.95;;;;;;;9.29;100.00;100405.22;5063503;28;20075;-75
2021/12/24 11:31:07;;;;;;;32.03;6.40;;;;;;;9.45;100.00;100405.94;5061212;28;20104;-75
2021/12/24 11:33:34;;;;;;;32.08;6.72;;;;;;;9.34;100.00;100410.66;5058722;28;20411;-75
2021/12/24 11:36:03;;;;;;;30.52;6.13;;;;;;;9.30;100.00;100404.94;5059582;28;20505;-75
2021/12/24 11:38:41;;;;;;;24.65;5.53;;;;;;;9.28;100.00;100404.41;5055855;28;20107;-73
2021/12/24 11:41:11;;;;;;;29.65;5.72;;;;;;;9.35;100.00;100410.38;5060494;28;20740;-77
2021/12/24 11:43:42;;;;;;;29.42;5.88;;;;;;;9.02;100.00;100401.84;5062829;28;20113;-79
2021/12/24 11:46:17;;;;;;;30.63;5.80;;;;;;;9.32;100.00;100389.03;5060086;28;20238;-75
2021/12/24 11:48:48;;;;;;;28.13;5.90;;;;;;;9.48;100.00;100391.69;5053248;28;20032;-75
2021/12/24 11:51:20;;;;;;;28.70;5.63;;;;;;;9.25;100.00;100388.56;5042175;28;20131;-80
2021/12/24 11:53:52;;;;;;;29.25;5.90;;;;;;;9.23;100.00;100392.66;5057465;28;20114;-79
2021/12/24 11:56:20;;;;;;;30.33;5.38;;;;;;;9.31;100.00;100387.44;5048293;28;20033;-80
2021/12/24 11:58:50;;;;;;;26.85;5.65;;;;;;;9.26;100.00;100389.38;5059028;28;20173;-77
2021/12/24 12:01:18;;;;;;;26.48;6.22;;;;;;;9.42;100.00;100398.28;5061451;28;20087;-76
2021/12/24 12:03:55;;;;;;;28.30;6.07;;;;;;;9.56;100.00;100389.16;5060543;28;20124;-77
2021/12/24 12:06:23;;;;;;;29.95;5.55;;;;;;;9.41;100.00;100391.19;5063472;28;20430;-74
2021/12/24 12:08:59;;;;;;;29.73;5.82;;;;;;;9.34;100.00;100383.28;5054178;28;20033;-77
2021/12/24 12:11:30;;;;;;;25.92;5.25;;;;;;;9.18;100.00;100391.63;5043656;28;20047;-76
2021/12/24 12:14:07;;;;;;;35.42;6.03;;;;;;;9.25;100.00;100401.41;5040951;28;20518;-74
2021/12/24 12:16:39;;;;;;;18.77;5.60;;;;;;;9.10;100.00;100394.13;5059564;28;20021;-76
2021/12/24 12:19:14;;;;;;;26.85;5.72;;;;;;;9.42;100.00;100399.09;5042550;28;20373;-76
2021/12/24 12:21:42;;;;;;;27.05;6.78;;;;;;;9.50;100.00;100397.69;5043988;28;20071;-74
2021/12/24 12:26:43;;;;;;;24.05;5.70;;;;;;;9.67;100.00;100392.59;5047575;28;20033;-76
2021/12/24 12:29:29;;;;;;;26.30;6.28;;;;;;;9.53;100.00;100389.72;5043527;28;20087;-76
2021/12/24 12:32:13;;;;;;;28.50;5.55;;;;;;;9.84;100.00;100394.94;5047140;28;20044;-77
2021/12/24 12:34:38;;;;;;;29.30;5.25;;;;;;;9.82;100.00;100405.34;5045872;28;20090;-79
2021/12/24 12:37:11;;;;;;;28.50;5.85;;;;;;;9.44;100.00;100396.88;5047750;28;20024;-80
2021/12/24 12:39:36;;;;;;;29.50;5.82;;;;;;;9.41;100.00;100400.19;5066375;28;20033;-77
2021/12/24 12:42:03;;;;;;;27.40;6.40;;;;;;;9.71;100.00;100395.59;5048689;28;20352;-79
2021/12/24 12:44:29;;;;;;;31.75;6.30;;;;;;;9.55;100.00;100394.91;5056903;28;20024;-77
2021/12/24 12:47:10;;;;;;;24.35;5.63;;;;;;;9.33;100.00;100403.53;5027203;28;20040;-77
2021/12/24 12:49:36;;;;;;;28.75;6.15;;;;;;;9.67;100.00;100397.25;5065420;28;20040;-76
2021/12/24 12:52:16;;;;;;;21.58;5.82;;;;;;;9.63;100.00;100386.06;5017049;28;20033;-76
2021/12/24 12:54:48;;;;;;;22.95;5.65;;;;;;;9.71;100.00;100387.38;5051118;28;20294;-77
2021/12/24 12:57:23;;;;;;;30.02;6.13;;;;;;;9.42;100.00;100377.22;5057189;28;20032;-78
2021/12/24 13:00:07;;;;;;;29.73;5.68;;;;;;;9.62;100.00;100391.84;5044218;28;20391;-80
2021/12/24 13:03:06;;;;;;;20.77;5.40;;;;;;;9.56;100.00;100386.41;5045257;28;20331;-78
2021/12/24 13:05:40;;;;;;;22.10;5.38;;;;;;;9.49;100.00;100382.34;5044594;28;20041;-81
2021/12/24 13:08:37;;;;;;;23.98;5.90;;;;;;;9.54;100.00;100390.53;5043244;28;20120;-79
2021/12/24 13:11:04;;;;;;;24.95;6.65;;;;;;;9.67;100.00;100395.34;5037410;28;20060;-77